Flight Track Log - Related Links

Times and Time Zones

All times are in EST time to prevent confusion due to time zone crossing. See the EJA583 flight status page for this flight to view local times or setup timezone preferences in your user account.

Time Position Orientation Groundspeed Altitude Reporting Facility
EST Latitude Longitude Course Direction KTS MPH feet Rate Location/Type
Mon 01:59:42 PM 40.9000 -74.0500 270° West 217 250 2,500  Level New York TRACON
Mon 02:00:42 PM 40.9000 -74.1167 270° West 251 289 5,800 1,750 Climbing New York TRACON
Mon 02:01:42 PM 40.8333 -74.1500 201° Southwest 272 313 6,000 1,585 Climbing New York TRACON
Mon 02:03:55 PM 40.6719 -74.2131 197° South 289 333 10,900 1,617 Climbing New York Center
Mon 02:04:55 PM 40.5658 -74.2050 177° South 332 382 11,200 1,750 Climbing New York Center
Mon 02:05:55 PM 40.4706 -74.1894 173° South 351 404 14,400 2,850 Climbing New York Center
Mon 02:06:55 PM 40.3875 -74.1744 172° South 350 403 16,900 1,937 Climbing New York Center
Mon 02:09:04 PM 40.1700 -74.1989 185° South 351 404 20,500 1,832 Climbing Washington Center
Mon 02:10:05 PM 40.0725 -74.2306 194° South 356 410 22,700 2,182 Climbing Washington Center
Mon 02:11:05 PM 39.9792 -74.2756 200° South 361 415 24,900 2,200 Climbing Washington Center
Mon 02:12:05 PM 39.8986 -74.3503 215° Southwest 354 407 27,100 2,182 Climbing Washington Center
Mon 02:13:06 PM 39.8203 -74.4300 218° Southwest 354 407 29,300 2,269 Climbing Washington Center
Mon 02:14:04 PM 39.7544 -74.5147 225° Southwest 354 407 31,600 1,983 Climbing Washington Center
Mon 02:15:04 PM 39.6906 -74.6019 226° Southwest 341 392 33,200 1,525 Climbing Washington Center
Mon 02:16:06 PM 39.6225 -74.6864 224° Southwest 336 387 34,700 1,328 Climbing Washington Center
Mon 02:17:06 PM 39.5544 -74.7761 225° Southwest 336 387 35,900 661 Climbing Washington Center
Mon 02:18:04 PM 39.4864 -74.8683 226° Southwest 346 398 36,000 51 Climbing Washington Center
Mon 02:19:04 PM 39.4119 -74.9683 226° Southwest 368 423 36,000  Level Washington Center
Mon 02:20:06 PM 39.3353 -75.0683 225° Southwest 386 444 36,000  Level Washington Center
Mon 02:21:04 PM 39.2397 -75.1386 210° Southwest 396 456 36,000  Level Washington Center
Mon 02:22:04 PM 39.1294 -75.1875 199° South 402 463 36,000  Level Washington Center
Mon 02:23:05 PM 39.0169 -75.2336 198° South 415 478 36,000  Level Washington Center
Mon 02:24:05 PM 38.9067 -75.2822 199° South 415 478 36,000  Level Washington Center
Mon 02:25:06 PM 38.7942 -75.3253 197° South 422 486 36,000  Level Washington Center
Mon 02:26:06 PM 38.6836 -75.3683 197° South 422 486 36,000  Level Washington Center
Mon 02:27:06 PM 38.5711 -75.4192 199° South 427 491 36,000  Level Washington Center
Mon 02:28:04 PM 38.4608 -75.4617 197° South 427 491 36,000  Level Washington Center
Mon 02:29:04 PM 38.3525 -75.5175 202° Southwest 427 491 36,000  Level Washington Center
Mon 02:30:05 PM 38.2525 -75.5811 207° Southwest 422 486 36,000 295 Level Washington Center
Mon 02:31:06 PM 38.1544 -75.6497 209° Southwest 405 466 36,600 639 Climbing Washington Center
Mon 02:32:07 PM 38.0583 -75.7208 210° Southwest 405 466 37,300 610 Climbing Washington Center
Mon 02:33:04 PM 37.9706 -75.7894 212° Southwest 410 472 37,800 615 Climbing Washington Center
Mon 02:34:04 PM 37.8558 -75.8628 207° Southwest 410 472 38,500 645 Climbing Washington Center
Mon 02:35:05 PM 37.7681 -75.9333 212° Southwest 416 479 39,100 639 Climbing Washington Center
Mon 02:36:06 PM 37.6678 -76.0036 209° Southwest 416 479 39,800 454 Climbing Washington Center
Mon 02:37:04 PM 37.5675 -76.0739 209° Southwest 416 479 40,000 102 Climbing Washington Center
Mon 02:38:04 PM 37.4650 -76.1439 208° Southwest 423 487 40,000  Level Washington Center
Mon 02:39:05 PM 37.3519 -76.2164 207° Southwest 418 481 40,000  Level Washington Center
Mon 02:40:05 PM 37.2514 -76.2858 209° Southwest 413 475 40,000  Level Washington Center
Mon 02:41:06 PM 37.1508 -76.3553 209° Southwest 413 475 40,000  Level Washington Center
Mon 02:42:04 PM 37.0503 -76.4272 210° Southwest 413 475 40,000  Level Washington Center
Mon 02:43:04 PM 36.9475 -76.4964 208° Southwest 413 475 40,000  Level Washington Center
Mon 02:44:04 PM 36.8469 -76.5678 210° Southwest 413 475 40,000  Level Washington Center
Mon 02:45:05 PM 36.7461 -76.6367 209° Southwest 413 475 40,000  Level Washington Center
Mon 02:46:05 PM 36.6453 -76.7078 210° Southwest 413 475 40,000  Level Washington Center
Mon 02:47:07 PM 36.5467 -76.7733 208° Southwest 413 475 40,000  Level Washington Center
Mon 02:48:04 PM 36.4436 -76.8417 208° Southwest 413 475 40,000  Level Washington Center
Mon 02:49:05 PM 36.3469 -76.9097 210° Southwest 413 475 40,000  Level Washington Center
Mon 02:50:06 PM 36.2442 -76.9750 207° Southwest 413 475 40,000  Level Washington Center
Mon 02:51:04 PM 36.1453 -77.0453 210° Southwest 413 475 40,000  Level Washington Center
Mon 02:52:05 PM 36.0464 -77.1103 208° Southwest 413 475 40,000  Level Washington Center
Mon 02:53:05 PM 35.9517 -77.1750 209° Southwest 407 468 40,000  Level Washington Center
Mon 02:54:07 PM 35.8525 -77.2422 209° Southwest 407 468 40,000  Level Washington Center
Mon 02:55:04 PM 35.7661 -77.2994 208° Southwest 407 468 40,000  Level Washington Center
Mon 02:56:04 PM 35.6650 -77.3664 208° Southwest 407 468 40,000  Level Washington Center
Mon 02:57:05 PM 35.5783 -77.4536 219° Southwest 407 468 40,000  Level Washington Center
Mon 02:58:05 PM 35.4933 -77.5411 220° Southwest 407 468 40,000  Level Washington Center
Mon 02:59:07 PM 35.4044 -77.6281 219° Southwest 407 468 40,000  Level Washington Center
Mon 03:00:04 PM 35.3194 -77.7125 219° Southwest 407 468 40,000  Level Washington Center
Mon 03:01:04 PM 35.2322 -77.7992 219° Southwest 407 468 40,000  Level Washington Center
Mon 03:02:05 PM 35.1450 -77.8858 219° Southwest 407 468 40,000  Level Washington Center
Mon 03:04:06 PM 34.9683 -78.0644 220° Southwest 412 474 40,000  Level Jacksonville Center
Mon 03:05:06 PM 34.8756 -78.1481 216° Southwest 412 474 40,000  Level Jacksonville Center
Mon 03:06:06 PM 34.7892 -78.2339 219° Southwest 412 474 40,000  Level Jacksonville Center
Mon 03:07:06 PM 34.7069 -78.3242 222° Southwest 412 474 40,000  Level Jacksonville Center
Mon 03:08:06 PM 34.6142 -78.4125 218° Southwest 417 480 40,000  Level Jacksonville Center
Mon 03:09:06 PM 34.5233 -78.4928 216° Southwest 412 474 40,000  Level Jacksonville Center
Mon 03:10:06 PM 34.4367 -78.5878 222° Southwest 412 474 40,000  Level Jacksonville Center
Mon 03:11:06 PM 34.3458 -78.6753 219° Southwest 417 480 40,000  Level Jacksonville Center
Mon 03:12:06 PM 34.2547 -78.7600 218° Southwest 417 480 40,000  Level Jacksonville Center
Mon 03:13:06 PM 34.1658 -78.8469 219° Southwest 417 480 40,000  Level Jacksonville Center
Mon 03:15:06 PM 33.9856 -79.0181 218° Southwest 417 480 40,000  Level Jacksonville Center
Mon 03:16:06 PM 33.8942 -79.1022 217° Southwest 417 480 40,000  Level Jacksonville Center
Mon 03:17:06 PM 33.8028 -79.1886 218° Southwest 417 480 40,000  Level Jacksonville Center
Mon 03:18:06 PM 33.7075 -79.2775 218° Southwest 422 486 40,000  Level Jacksonville Center
Mon 03:19:06 PM 33.6200 -79.3583 218° Southwest 404 465 40,000  Level Jacksonville Center
Mon 03:20:06 PM 33.5283 -79.4442 218° Southwest 410 472 40,000  Level Jacksonville Center
Mon 03:21:06 PM 33.4369 -79.5300 218° Southwest 410 472 40,000  Level Jacksonville Center
Mon 03:22:06 PM 33.3472 -79.6156 219° Southwest 415 478 40,000  Level Jacksonville Center
Mon 03:23:06 PM 33.2578 -79.7006 218° Southwest 420 483 40,000  Level Jacksonville Center
Mon 03:24:06 PM 33.1658 -79.7833 217° Southwest 420 483 40,000  Level Jacksonville Center
Mon 03:25:06 PM 33.0739 -79.8683 218° Southwest 420 483 40,000  Level Jacksonville Center
Mon 03:26:06 PM 32.9819 -79.9531 218° Southwest 420 483 40,000  Level Jacksonville Center
Mon 03:27:06 PM 32.8981 -80.0275 217° Southwest 420 483 40,000  Level Jacksonville Center
Mon 03:28:06 PM 32.8017 -80.1047 214° Southwest 425 489 40,000  Level Jacksonville Center
Mon 03:29:06 PM 32.7011 -80.1769 211° Southwest 425 489 40,000  Level Jacksonville Center
Mon 03:30:06 PM 32.6025 -80.2517 213° Southwest 420 483 40,000  Level Jacksonville Center
Mon 03:31:06 PM 32.5058 -80.3258 213° Southwest 420 483 40,000  Level Jacksonville Center
Mon 03:32:06 PM 32.4072 -80.3975 212° Southwest 425 489 40,000  Level Jacksonville Center
Mon 03:33:06 PM 32.3061 -80.4692 211° Southwest 425 489 40,000  Level Jacksonville Center
Mon 03:34:06 PM 32.2053 -80.5428 212° Southwest 425 489 40,000  Level Jacksonville Center
Mon 03:35:06 PM 32.1003 -80.6217 212° Southwest 424 488 40,000  Level Jacksonville Center
Mon 03:36:06 PM 31.9992 -80.6928 211° Southwest 430 495 40,000  Level Jacksonville Center
Mon 03:37:06 PM 31.9086 -80.7586 212° Southwest 425 489 40,000  Level Jacksonville Center
Mon 03:38:06 PM 31.7950 -80.8394 211° Southwest 425 489 40,000  Level Jacksonville Center
Mon 03:39:06 PM 31.6853 -80.8931 203° Southwest 430 495 40,000  Level Jacksonville Center
Mon 03:40:06 PM 31.5644 -80.9225 192° South 437 503 40,000  Level Jacksonville Center
Mon 03:41:06 PM 31.4544 -80.9492 192° South 443 510 40,000  Level Jacksonville Center
Mon 03:42:06 PM 31.3253 -80.9833 193° South 448 516 40,000 -50 Level Jacksonville Center
Mon 03:43:06 PM 31.2047 -81.0150 193° South 448 516 39,900 -800 Descending Jacksonville Center
Mon 03:44:06 PM 31.0819 -81.0442 192° South 448 516 38,400 -1,500 Descending Jacksonville Center
Mon 03:45:06 PM 30.9614 -81.0731 192° South 448 516 36,900 -1,300 Descending Jacksonville Center
Mon 03:46:06 PM 30.8364 -81.1047 192° South 448 516 35,800 -1,050 Descending Jacksonville Center
Mon 03:47:06 PM 30.7136 -81.1333 191° South 448 516 34,800 -1,000 Descending Jacksonville Center
Mon 03:48:06 PM 30.5908 -81.1528 188° South 448 516 33,800 -1,150 Descending Jacksonville Center
Mon 03:49:06 PM 30.4633 -81.1500 179° South 448 516 32,500 -1,450 Descending Jacksonville Center
Mon 03:50:06 PM 30.3381 -81.1453 178° South 448 516 30,900 -1,250 Descending Jacksonville Center
Mon 03:51:06 PM 30.2147 -81.1403 178° South 448 516 30,000 -450 Descending Jacksonville Center
Mon 03:52:06 PM 30.0917 -81.1378 179° South 448 516 30,000  Level Jacksonville Center
Mon 03:53:06 PM 29.9725 -81.1350 179° South 442 509 30,000 -1,000 Level Jacksonville Center
Mon 03:54:06 PM 29.8494 -81.1300 178° South 442 509 28,000 -2,200 Descending Jacksonville Center
Mon 03:55:06 PM 29.7219 -81.1300 180° South 442 509 25,600 -2,350 Descending Jacksonville Center
Mon 03:56:06 PM 29.6008 -81.1250 178° South 442 509 23,300 -2,300 Descending Jacksonville Center
Mon 03:57:06 PM 29.4797 -81.1200 178° South 442 509 21,000 -2,050 Descending Jacksonville Center
Mon 03:58:06 PM 29.3753 -81.1172 179° South 429 494 19,200 6,500 Descending Jacksonville Center
Mon 03:59:06 PM 29.2644 -81.1119 178° South 418 481 34,000 -2,100 Climbing Jacksonville Center
Mon 04:00:06 PM 29.1581 -81.1022 175° South 406 467 15,000 -10,500 Descending Jacksonville Center
Mon 04:01:06 PM 29.0514 -81.0969 178° South 394 453 13,000 -1,450 Descending Jacksonville Center
Mon 04:02:06 PM 28.9489 -81.0797 172° South 383 441 12,100 -914 Descending Jacksonville Center
Mon 04:02:51 PM 28.8667 -81.0833 182° South 337 388 11,400 -1,257 Descending Orlando TRACON
Mon 04:03:51 PM 28.7833 -81.1167 199° South 300 345 9,900 -1,200 Descending Orlando TRACON
Mon 04:04:51 PM 28.7000 -81.1333 190° South 297 342 9,000 -450 Descending Orlando TRACON
Mon 04:05:51 PM 28.6333 -81.1500 192° South 254 292 9,000  Level Orlando TRACON
Mon 04:06:51 PM 28.5667 -81.1833 204° Southwest 255 293 9,000 -300 Level Orlando TRACON
Mon 04:07:51 PM 28.5000 -81.1833 180° South 247 284 8,400 -1,100 Descending Orlando TRACON
Mon 04:08:51 PM 28.4333 -81.1833 180° South 244 281 6,800 -1,550 Descending Orlando TRACON
Mon 04:09:51 PM 28.3667 -81.1833 180° South 238 274 5,300 -1,500 Descending Orlando TRACON
Mon 04:10:51 PM 28.3000 -81.1833 180° South 228 262 3,800 -1,488 Descending Orlando TRACON
Mon 04:11:52 PM 28.2333 -81.2000 192° South 254 292 2,300 -1,091 Descending Orlando TRACON
Mon 04:12:52 PM 28.2500 -81.2833 283° West 221 254 1,600 -350 Descending Orlando TRACON
Mon 04:13:52 PM 28.2833 -81.3167 319° Northwest 152 175 1,600  Level Orlando TRACON
Mon 04:14:52 PM 28.3333 -81.3167 360° North 163 188 1,600 -250 Level Orlando TRACON
Mon 04:15:52 PM 28.3667 -81.3333 336° Northwest 147 169 1,100 -550 Descending Orlando TRACON
Mon 04:16:52 PM 28.4000 -81.3333 360° North 107 123 500 -600 Descending Orlando TRACON
Mon 04:18:00 PM 28.4167 -81.3000 336° Northwest  Level FlightAware Approximate
Mon 04:25:00 PM 28.4294 -81.3090 336° Northwest  Level Estimated
Mon 04:26:00 PM 28.4294 -81.3090 336° Northwest  Level Estimated
Mon 04:27:00 PM 28.4294 -81.3090 336° Northwest  Level Estimated
Mon 04:28:00 PM 28.4294 -81.3090 336° Northwest  Level Estimated

Login

Don't have an account? Register now (free) for customized features, flight alerts, and more!